Terminal Aerodrome Forecast
Issued by NWS Sioux Falls, SD

Home | Current Version | Previous Version | Text Only | Print | Product List | Glossary Off
Versions: 1 2 3 4 5 6 7 8 9 10 11 12 13 14 15

257
FTUS43 KFSD 210859 AAA
TAFHON
TAF AMD
KHON 210859Z 2109/2206 VRB03KT 2SM BR SKC
      TEMPO 2109/2112 1SM BR SCT002
     FM211400 09006KT P6SM FEW050=

USA.gov is the U.S. government's official web portal to all federal, state and local government web resources and services.